sensor_id;sensor_type;location;lat;lon;timestamp;P1;durP1;ratioP1;P2;durP2;ratioP2
10061;SDS011;5070;52.382;5.270;2023-05-07T00:00:39;3.55;;;2.88;;
10061;SDS011;5070;52.382;5.270;2023-05-07T00:03:08;2.38;;;2.17;;
10061;SDS011;5070;52.382;5.270;2023-05-07T00:05:37;3.35;;;2.00;;
10061;SDS011;5070;52.382;5.270;2023-05-07T00:08:05;6.53;;;2.58;;
10061;SDS011;5070;52.382;5.270;2023-05-07T00:10:33;3.08;;;2.55;;
10061;SDS011;5070;52.382;5.270;2023-05-07T00:13:01;2.88;;;2.10;;
10061;SDS011;5070;52.382;5.270;2023-05-07T00:15:29;2.95;;;1.95;;
10061;SDS011;5070;52.382;5.270;2023-05-07T00:17:57;2.70;;;2.00;;
10061;SDS011;5070;52.382;5.270;2023-05-07T00:20:27;4.55;;;2.63;;
10061;SDS011;5070;52.382;5.270;2023-05-07T00:22:55;2.45;;;2.10;;
10061;SDS011;5070;52.382;5.270;2023-05-07T00:25:23;3.05;;;2.25;;
10061;SDS011;5070;52.382;5.270;2023-05-07T00:27:51;1.90;;;1.35;;
10061;SDS011;5070;52.382;5.270;2023-05-07T00:30:20;14.02;;;2.28;;
10061;SDS011;5070;52.382;5.270;2023-05-07T00:32:47;3.17;;;2.15;;
10061;SDS011;5070;52.382;5.270;2023-05-07T00:35:17;5.00;;;2.53;;
10061;SDS011;5070;52.382;5.270;2023-05-07T00:37:46;6.03;;;3.03;;
10061;SDS011;5070;52.382;5.270;2023-05-07T00:40:15;4.93;;;1.83;;
10061;SDS011;5070;52.382;5.270;2023-05-07T00:42:43;3.35;;;1.85;;
10061;SDS011;5070;52.382;5.270;2023-05-07T00:45:13;4.93;;;1.55;;
10061;SDS011;5070;52.382;5.270;2023-05-07T00:47:41;4.72;;;3.03;;
10061;SDS011;5070;52.382;5.270;2023-05-07T00:50:09;4.65;;;2.40;;
10061;SDS011;5070;52.382;5.270;2023-05-07T00:52:39;3.25;;;2.03;;
10061;SDS011;5070;52.382;5.270;2023-05-07T00:55:09;3.53;;;3.33;;
10061;SDS011;5070;52.382;5.270;2023-05-07T00:57:39;2.88;;;2.33;;
10061;SDS011;5070;52.382;5.270;2023-05-07T01:00:08;2.83;;;2.28;;
10061;SDS011;5070;52.382;5.270;2023-05-07T01:02:39;2.80;;;1.60;;
10061;SDS011;5070;52.382;5.270;2023-05-07T01:05:09;4.47;;;2.75;;
10061;SDS011;5070;52.382;5.270;2023-05-07T01:07:39;3.10;;;2.90;;
10061;SDS011;5070;52.382;5.270;2023-05-07T01:10:10;4.53;;;3.05;;
10061;SDS011;5070;52.382;5.270;2023-05-07T01:12:39;2.70;;;1.73;;
10061;SDS011;5070;52.382;5.270;2023-05-07T01:15:09;3.53;;;2.35;;
10061;SDS011;5070;52.382;5.270;2023-05-07T01:17:39;2.67;;;2.20;;
10061;SDS011;5070;52.382;5.270;2023-05-07T01:20:14;4.68;;;1.27;;
10061;SDS011;5070;52.382;5.270;2023-05-07T01:22:45;4.68;;;3.00;;
10061;SDS011;5070;52.382;5.270;2023-05-07T01:25:13;5.40;;;3.50;;
10061;SDS011;5070;52.382;5.270;2023-05-07T01:27:48;3.00;;;1.55;;
10061;SDS011;5070;52.382;5.270;2023-05-07T01:30:16;2.83;;;1.90;;
10061;SDS011;5070;52.382;5.270;2023-05-07T01:32:51;3.15;;;2.05;;
10061;SDS011;5070;52.382;5.270;2023-05-07T01:35:24;3.20;;;1.65;;
10061;SDS011;5070;52.382;5.270;2023-05-07T01:38:03;2.20;;;1.80;;
10061;SDS011;5070;52.382;5.270;2023-05-07T01:40:32;3.45;;;1.77;;
10061;SDS011;5070;52.382;5.270;2023-05-07T01:43:06;2.85;;;1.73;;
10061;SDS011;5070;52.382;5.270;2023-05-07T01:45:36;2.13;;;1.67;;
10061;SDS011;5070;52.382;5.270;2023-05-07T01:48:04;4.65;;;2.38;;
10061;SDS011;5070;52.382;5.270;2023-05-07T01:50:33;3.70;;;1.73;;
10061;SDS011;5070;52.382;5.270;2023-05-07T01:53:03;2.55;;;2.40;;
10061;SDS011;5070;52.382;5.270;2023-05-07T01:55:31;2.03;;;1.88;;
10061;SDS011;5070;52.382;5.270;2023-05-07T01:57:59;2.97;;;1.63;;
10061;SDS011;5070;52.382;5.270;2023-05-07T02:00:27;4.20;;;2.60;;
10061;SDS011;5070;52.382;5.270;2023-05-07T02:02:55;2.28;;;1.55;;
10061;SDS011;5070;52.382;5.270;2023-05-07T02:05:32;2.42;;;2.03;;
10061;SDS011;5070;52.382;5.270;2023-05-07T02:08:07;2.85;;;1.80;;
10061;SDS011;5070;52.382;5.270;2023-05-07T02:10:36;3.42;;;2.35;;
10061;SDS011;5070;52.382;5.270;2023-05-07T02:13:05;6.03;;;2.08;;
10061;SDS011;5070;52.382;5.270;2023-05-07T02:15:33;3.78;;;1.67;;
10061;SDS011;5070;52.382;5.270;2023-05-07T02:18:03;2.55;;;1.73;;
10061;SDS011;5070;52.382;5.270;2023-05-07T02:20:32;2.75;;;2.05;;
10061;SDS011;5070;52.382;5.270;2023-05-07T02:23:01;2.40;;;2.17;;
10061;SDS011;5070;52.382;5.270;2023-05-07T02:25:30;1.75;;;1.02;;
10061;SDS011;5070;52.382;5.270;2023-05-07T02:27:58;2.00;;;1.40;;
10061;SDS011;5070;52.382;5.270;2023-05-07T02:30:38;2.55;;;2.03;;
10061;SDS011;5070;52.382;5.270;2023-05-07T02:33:06;3.30;;;2.60;;
10061;SDS011;5070;52.382;5.270;2023-05-07T02:35:35;2.47;;;1.50;;
10061;SDS011;5070;52.382;5.270;2023-05-07T02:38:03;4.78;;;1.73;;
10061;SDS011;5070;52.382;5.270;2023-05-07T02:40:34;7.40;;;1.90;;
10061;SDS011;5070;52.382;5.270;2023-05-07T02:43:07;2.78;;;2.17;;
10061;SDS011;5070;52.382;5.270;2023-05-07T02:45:35;2.30;;;1.50;;
10061;SDS011;5070;52.382;5.270;2023-05-07T02:48:05;2.40;;;1.92;;
10061;SDS011;5070;52.382;5.270;2023-05-07T02:50:33;3.25;;;2.47;;
10061;SDS011;5070;52.382;5.270;2023-05-07T02:53:01;2.60;;;1.77;;
10061;SDS011;5070;52.382;5.270;2023-05-07T02:55:34;2.58;;;1.55;;
10061;SDS011;5070;52.382;5.270;2023-05-07T02:58:02;4.75;;;1.55;;
10061;SDS011;5070;52.382;5.270;2023-05-07T03:00:33;2.70;;;1.83;;
10061;SDS011;5070;52.382;5.270;2023-05-07T03:03:20;2.00;;;1.58;;
10061;SDS011;5070;52.382;5.270;2023-05-07T03:05:48;2.15;;;1.77;;
10061;SDS011;5070;52.382;5.270;2023-05-07T03:08:16;2.47;;;1.90;;
10061;SDS011;5070;52.382;5.270;2023-05-07T03:10:46;2.42;;;1.45;;
10061;SDS011;5070;52.382;5.270;2023-05-07T03:13:14;2.85;;;2.67;;
10061;SDS011;5070;52.382;5.270;2023-05-07T03:15:42;2.30;;;1.40;;
10061;SDS011;5070;52.382;5.270;2023-05-07T03:18:10;2.15;;;1.73;;
10061;SDS011;5070;52.382;5.270;2023-05-07T03:20:38;1.83;;;1.13;;
10061;SDS011;5070;52.382;5.270;2023-05-07T03:23:06;2.67;;;1.63;;
10061;SDS011;5070;52.382;5.270;2023-05-07T03:25:35;2.22;;;1.48;;
10061;SDS011;5070;52.382;5.270;2023-05-07T03:28:04;2.45;;;1.48;;
10061;SDS011;5070;52.382;5.270;2023-05-07T03:30:47;2.50;;;1.30;;
10061;SDS011;5070;52.382;5.270;2023-05-07T03:33:15;2.22;;;1.45;;
10061;SDS011;5070;52.382;5.270;2023-05-07T03:35:43;1.92;;;1.30;;
10061;SDS011;5070;52.382;5.270;2023-05-07T03:38:17;6.10;;;1.45;;
10061;SDS011;5070;52.382;5.270;2023-05-07T03:40:46;2.80;;;2.10;;
10061;SDS011;5070;52.382;5.270;2023-05-07T03:43:15;1.98;;;1.88;;
10061;SDS011;5070;52.382;5.270;2023-05-07T03:45:48;1.85;;;1.10;;
10061;SDS011;5070;52.382;5.270;2023-05-07T03:48:21;2.50;;;1.30;;
10061;SDS011;5070;52.382;5.270;2023-05-07T03:50:51;2.05;;;1.95;;
10061;SDS011;5070;52.382;5.270;2023-05-07T03:53:20;3.05;;;2.00;;
10061;SDS011;5070;52.382;5.270;2023-05-07T03:55:51;2.38;;;1.70;;
10061;SDS011;5070;52.382;5.270;2023-05-07T03:58:21;3.88;;;2.58;;
10061;SDS011;5070;52.382;5.270;2023-05-07T04:00:50;2.03;;;1.40;;
10061;SDS011;5070;52.382;5.270;2023-05-07T04:03:23;2.63;;;1.60;;
10061;SDS011;5070;52.382;5.270;2023-05-07T04:05:52;2.10;;;1.65;;
10061;SDS011;5070;52.382;5.270;2023-05-07T04:08:20;7.55;;;2.67;;
10061;SDS011;5070;52.382;5.270;2023-05-07T04:10:54;2.00;;;1.20;;
10061;SDS011;5070;52.382;5.270;2023-05-07T04:13:30;3.65;;;2.80;;
10061;SDS011;5070;52.382;5.270;2023-05-07T04:16:04;2.10;;;1.48;;
10061;SDS011;5070;52.382;5.270;2023-05-07T04:18:34;2.50;;;1.98;;
10061;SDS011;5070;52.382;5.270;2023-05-07T04:21:03;3.28;;;1.40;;
10061;SDS011;5070;52.382;5.270;2023-05-07T04:23:34;2.60;;;2.13;;
10061;SDS011;5070;52.382;5.270;2023-05-07T04:26:06;1.90;;;1.40;;
10061;SDS011;5070;52.382;5.270;2023-05-07T04:28:40;1.90;;;1.73;;
10061;SDS011;5070;52.382;5.270;2023-05-07T04:31:08;2.17;;;1.33;;
10061;SDS011;5070;52.382;5.270;2023-05-07T04:33:37;2.00;;;1.60;;
10061;SDS011;5070;52.382;5.270;2023-05-07T04:36:12;2.40;;;2.00;;
10061;SDS011;5070;52.382;5.270;2023-05-07T04:38:49;3.55;;;1.35;;
10061;SDS011;5070;52.382;5.270;2023-05-07T04:41:18;1.95;;;1.15;;
10061;SDS011;5070;52.382;5.270;2023-05-07T04:43:53;2.08;;;1.38;;
10061;SDS011;5070;52.382;5.270;2023-05-07T04:46:23;2.45;;;1.48;;
10061;SDS011;5070;52.382;5.270;2023-05-07T04:48:53;2.92;;;1.40;;
10061;SDS011;5070;52.382;5.270;2023-05-07T04:51:22;2.00;;;1.25;;
10061;SDS011;5070;52.382;5.270;2023-05-07T04:53:50;2.25;;;1.65;;
10061;SDS011;5070;52.382;5.270;2023-05-07T04:56:20;3.15;;;2.08;;
10061;SDS011;5070;52.382;5.270;2023-05-07T04:58:51;2.35;;;1.83;;
10061;SDS011;5070;52.382;5.270;2023-05-07T05:01:21;2.53;;;1.25;;
10061;SDS011;5070;52.382;5.270;2023-05-07T05:03:53;2.22;;;1.17;;
10061;SDS011;5070;52.382;5.270;2023-05-07T05:06:21;3.17;;;1.77;;
10061;SDS011;5070;52.382;5.270;2023-05-07T05:08:49;2.30;;;1.65;;
10061;SDS011;5070;52.382;5.270;2023-05-07T05:11:17;4.10;;;1.75;;
10061;SDS011;5070;52.382;5.270;2023-05-07T05:13:46;2.45;;;1.20;;
10061;SDS011;5070;52.382;5.270;2023-05-07T05:16:19;3.20;;;2.08;;
10061;SDS011;5070;52.382;5.270;2023-05-07T05:18:49;2.72;;;1.55;;
10061;SDS011;5070;52.382;5.270;2023-05-07T05:21:18;2.15;;;1.48;;
10061;SDS011;5070;52.382;5.270;2023-05-07T05:23:48;2.30;;;1.58;;
10061;SDS011;5070;52.382;5.270;2023-05-07T05:26:19;1.88;;;1.30;;
10061;SDS011;5070;52.382;5.270;2023-05-07T05:28:48;3.08;;;1.40;;
10061;SDS011;5070;52.382;5.270;2023-05-07T05:31:19;2.28;;;1.55;;
10061;SDS011;5070;52.382;5.270;2023-05-07T05:33:50;2.33;;;1.20;;
10061;SDS011;5070;52.382;5.270;2023-05-07T05:36:18;2.30;;;2.10;;
10061;SDS011;5070;52.382;5.270;2023-05-07T05:38:48;2.38;;;1.60;;
10061;SDS011;5070;52.382;5.270;2023-05-07T05:41:16;2.13;;;1.75;;
10061;SDS011;5070;52.382;5.270;2023-05-07T05:43:44;3.10;;;2.05;;
10061;SDS011;5070;52.382;5.270;2023-05-07T05:46:12;2.47;;;2.22;;
10061;SDS011;5070;52.382;5.270;2023-05-07T05:48:41;1.98;;;1.25;;
10061;SDS011;5070;52.382;5.270;2023-05-07T05:51:11;2.95;;;2.10;;
10061;SDS011;5070;52.382;5.270;2023-05-07T05:53:39;1.98;;;1.35;;
10061;SDS011;5070;52.382;5.270;2023-05-07T05:56:07;2.83;;;1.85;;
10061;SDS011;5070;52.382;5.270;2023-05-07T05:58:37;2.10;;;1.70;;
10061;SDS011;5070;52.382;5.270;2023-05-07T06:01:06;2.40;;;2.00;;
10061;SDS011;5070;52.382;5.270;2023-05-07T06:03:35;3.72;;;1.65;;
10061;SDS011;5070;52.382;5.270;2023-05-07T06:06:08;2.45;;;1.80;;
10061;SDS011;5070;52.382;5.270;2023-05-07T06:08:37;2.72;;;2.00;;
10061;SDS011;5070;52.382;5.270;2023-05-07T06:11:09;2.03;;;1.30;;
10061;SDS011;5070;52.382;5.270;2023-05-07T06:13:39;2.10;;;1.70;;
10061;SDS011;5070;52.382;5.270;2023-05-07T06:16:07;1.88;;;1.33;;
10061;SDS011;5070;52.382;5.270;2023-05-07T06:18:36;2.15;;;1.27;;
10061;SDS011;5070;52.382;5.270;2023-05-07T06:21:04;2.95;;;1.70;;
10061;SDS011;5070;52.382;5.270;2023-05-07T06:23:33;3.95;;;1.45;;
10061;SDS011;5070;52.382;5.270;2023-05-07T06:26:04;2.00;;;1.20;;
10061;SDS011;5070;52.382;5.270;2023-05-07T06:28:37;2.45;;;2.00;;
10061;SDS011;5070;52.382;5.270;2023-05-07T06:31:12;3.28;;;2.10;;
10061;SDS011;5070;52.382;5.270;2023-05-07T06:33:45;7.47;;;1.75;;
10061;SDS011;5070;52.382;5.270;2023-05-07T06:36:14;4.15;;;2.42;;
10061;SDS011;5070;52.382;5.270;2023-05-07T06:38:43;2.50;;;1.25;;
10061;SDS011;5070;52.382;5.270;2023-05-07T06:41:13;2.15;;;1.73;;
10061;SDS011;5070;52.382;5.270;2023-05-07T06:43:42;2.95;;;1.63;;
10061;SDS011;5070;52.382;5.270;2023-05-07T06:46:29;2.03;;;1.75;;
10061;SDS011;5070;52.382;5.270;2023-05-07T06:48:57;2.65;;;1.45;;
10061;SDS011;5070;52.382;5.270;2023-05-07T06:51:26;2.90;;;1.58;;
10061;SDS011;5070;52.382;5.270;2023-05-07T06:53:56;2.30;;;1.35;;
10061;SDS011;5070;52.382;5.270;2023-05-07T06:56:28;2.08;;;1.55;;
10061;SDS011;5070;52.382;5.270;2023-05-07T06:58:57;2.70;;;1.80;;
10061;SDS011;5070;52.382;5.270;2023-05-07T07:01:25;1.70;;;1.15;;
10061;SDS011;5070;52.382;5.270;2023-05-07T07:03:53;2.10;;;1.55;;
10061;SDS011;5070;52.382;5.270;2023-05-07T07:06:22;2.50;;;1.95;;
10061;SDS011;5070;52.382;5.270;2023-05-07T07:08:50;3.13;;;1.63;;
10061;SDS011;5070;52.382;5.270;2023-05-07T07:11:18;4.25;;;1.55;;
10061;SDS011;5070;52.382;5.270;2023-05-07T07:13:49;8.38;;;1.48;;
10061;SDS011;5070;52.382;5.270;2023-05-07T07:16:21;17.02;;;3.20;;
10061;SDS011;5070;52.382;5.270;2023-05-07T07:18:50;2.17;;;1.45;;
10061;SDS011;5070;52.382;5.270;2023-05-07T07:21:19;3.30;;;2.45;;
10061;SDS011;5070;52.382;5.270;2023-05-07T07:23:47;2.55;;;2.10;;
10061;SDS011;5070;52.382;5.270;2023-05-07T07:26:16;2.58;;;2.40;;
10061;SDS011;5070;52.382;5.270;2023-05-07T07:28:45;5.93;;;1.92;;
10061;SDS011;5070;52.382;5.270;2023-05-07T07:31:20;8.27;;;2.30;;
10061;SDS011;5070;52.382;5.270;2023-05-07T07:33:49;21.23;;;2.50;;
10061;SDS011;5070;52.382;5.270;2023-05-07T07:36:19;3.80;;;2.83;;
10061;SDS011;5070;52.382;5.270;2023-05-07T07:38:49;6.47;;;1.88;;
10061;SDS011;5070;52.382;5.270;2023-05-07T07:41:17;3.17;;;1.58;;
10061;SDS011;5070;52.382;5.270;2023-05-07T07:43:46;2.60;;;2.20;;
10061;SDS011;5070;52.382;5.270;2023-05-07T07:46:17;3.88;;;2.28;;
10061;SDS011;5070;52.382;5.270;2023-05-07T07:48:46;2.65;;;2.10;;
10061;SDS011;5070;52.382;5.270;2023-05-07T07:51:14;2.63;;;1.73;;
10061;SDS011;5070;52.382;5.270;2023-05-07T07:53:43;3.80;;;1.35;;
10061;SDS011;5070;52.382;5.270;2023-05-07T07:56:11;5.63;;;2.28;;
10061;SDS011;5070;52.382;5.270;2023-05-07T07:58:38;6.97;;;1.92;;
10061;SDS011;5070;52.382;5.270;2023-05-07T08:01:06;14.88;;;3.55;;
10061;SDS011;5070;52.382;5.270;2023-05-07T08:03:37;2.78;;;1.60;;
10061;SDS011;5070;52.382;5.270;2023-05-07T08:06:07;2.72;;;2.08;;
10061;SDS011;5070;52.382;5.270;2023-05-07T08:08:35;3.67;;;1.83;;
10061;SDS011;5070;52.382;5.270;2023-05-07T08:11:03;5.25;;;4.25;;
10061;SDS011;5070;52.382;5.270;2023-05-07T08:13:34;5.03;;;1.90;;
10061;SDS011;5070;52.382;5.270;2023-05-07T08:16:02;3.55;;;1.88;;
10061;SDS011;5070;52.382;5.270;2023-05-07T08:18:31;2.65;;;1.33;;
10061;SDS011;5070;52.382;5.270;2023-05-07T08:21:01;9.15;;;3.40;;
10061;SDS011;5070;52.382;5.270;2023-05-07T08:23:31;4.57;;;2.10;;
10061;SDS011;5070;52.382;5.270;2023-05-07T08:26:00;3.15;;;1.60;;
10061;SDS011;5070;52.382;5.270;2023-05-07T08:28:29;2.47;;;1.55;;
10061;SDS011;5070;52.382;5.270;2023-05-07T08:31:00;4.93;;;2.20;;
10061;SDS011;5070;52.382;5.270;2023-05-07T08:33:32;2.88;;;1.67;;
10061;SDS011;5070;52.382;5.270;2023-05-07T08:36:10;4.90;;;2.20;;
10061;SDS011;5070;52.382;5.270;2023-05-07T08:38:40;8.40;;;2.00;;
10061;SDS011;5070;52.382;5.270;2023-05-07T08:41:10;1.90;;;1.40;;
10061;SDS011;5070;52.382;5.270;2023-05-07T08:43:43;11.90;;;3.38;;
10061;SDS011;5070;52.382;5.270;2023-05-07T08:46:23;2.45;;;1.83;;
10061;SDS011;5070;52.382;5.270;2023-05-07T08:48:55;2.75;;;2.10;;
10061;SDS011;5070;52.382;5.270;2023-05-07T08:51:23;7.50;;;2.22;;
10061;SDS011;5070;52.382;5.270;2023-05-07T08:53:52;2.53;;;1.90;;
10061;SDS011;5070;52.382;5.270;2023-05-07T08:56:25;2.90;;;2.13;;
10061;SDS011;5070;52.382;5.270;2023-05-07T08:58:54;5.07;;;2.17;;
10061;SDS011;5070;52.382;5.270;2023-05-07T09:01:23;2.28;;;1.30;;
10061;SDS011;5070;52.382;5.270;2023-05-07T09:03:53;3.35;;;3.20;;
10061;SDS011;5070;52.382;5.270;2023-05-07T09:06:22;5.40;;;3.08;;
10061;SDS011;5070;52.382;5.270;2023-05-07T09:08:53;7.50;;;2.30;;
10061;SDS011;5070;52.382;5.270;2023-05-07T09:11:25;3.08;;;2.42;;
10061;SDS011;5070;52.382;5.270;2023-05-07T09:13:56;3.95;;;2.40;;
10061;SDS011;5070;52.382;5.270;2023-05-07T09:16:28;4.30;;;2.42;;
10061;SDS011;5070;52.382;5.270;2023-05-07T09:18:59;5.57;;;2.67;;
10061;SDS011;5070;52.382;5.270;2023-05-07T09:21:27;2.50;;;1.85;;
10061;SDS011;5070;52.382;5.270;2023-05-07T09:23:59;3.90;;;2.75;;
10061;SDS011;5070;52.382;5.270;2023-05-07T09:26:33;6.53;;;2.65;;
10061;SDS011;5070;52.382;5.270;2023-05-07T09:29:03;2.22;;;1.85;;
10061;SDS011;5070;52.382;5.270;2023-05-07T09:31:33;2.38;;;2.05;;
10061;SDS011;5070;52.382;5.270;2023-05-07T09:34:05;4.45;;;2.35;;
10061;SDS011;5070;52.382;5.270;2023-05-07T09:36:35;3.58;;;2.65;;
10061;SDS011;5070;52.382;5.270;2023-05-07T09:39:04;17.40;;;1.95;;
10061;SDS011;5070;52.382;5.270;2023-05-07T09:41:33;3.28;;;2.60;;
10061;SDS011;5070;52.382;5.270;2023-05-07T09:44:20;3.58;;;1.77;;
10061;SDS011;5070;52.382;5.270;2023-05-07T09:46:52;2.78;;;1.50;;
10061;SDS011;5070;52.382;5.270;2023-05-07T09:49:32;3.83;;;2.50;;
10061;SDS011;5070;52.382;5.270;2023-05-07T09:52:05;2.83;;;2.55;;
10061;SDS011;5070;52.382;5.270;2023-05-07T09:54:39;4.47;;;2.03;;
10061;SDS011;5070;52.382;5.270;2023-05-07T09:57:10;6.53;;;2.47;;
10061;SDS011;5070;52.382;5.270;2023-05-07T09:59:41;3.85;;;3.05;;
10061;SDS011;5070;52.382;5.270;2023-05-07T10:02:13;3.58;;;3.05;;
10061;SDS011;5070;52.382;5.270;2023-05-07T10:04:46;4.43;;;2.03;;
10061;SDS011;5070;52.382;5.270;2023-05-07T10:07:24;4.45;;;3.38;;
10061;SDS011;5070;52.382;5.270;2023-05-07T10:09:57;5.95;;;2.58;;
10061;SDS011;5070;52.382;5.270;2023-05-07T10:12:33;2.13;;;1.92;;
10061;SDS011;5070;52.382;5.270;2023-05-07T10:15:10;6.57;;;2.55;;
10061;SDS011;5070;52.382;5.270;2023-05-07T10:17:44;4.47;;;1.67;;
10061;SDS011;5070;52.382;5.270;2023-05-07T10:20:12;2.60;;;2.08;;
10061;SDS011;5070;52.382;5.270;2023-05-07T10:22:43;2.45;;;1.38;;
10061;SDS011;5070;52.382;5.270;2023-05-07T10:25:21;3.47;;;3.30;;
10061;SDS011;5070;52.382;5.270;2023-05-07T10:27:53;1.98;;;1.45;;
10061;SDS011;5070;52.382;5.270;2023-05-07T10:30:26;3.13;;;2.33;;
10061;SDS011;5070;52.382;5.270;2023-05-07T10:33:05;3.35;;;2.38;;
10061;SDS011;5070;52.382;5.270;2023-05-07T10:35:42;3.05;;;2.42;;
10061;SDS011;5070;52.382;5.270;2023-05-07T10:38:16;1.80;;;1.27;;
10061;SDS011;5070;52.382;5.270;2023-05-07T10:40:47;4.03;;;2.70;;
10061;SDS011;5070;52.382;5.270;2023-05-07T10:43:16;3.65;;;2.08;;
10061;SDS011;5070;52.382;5.270;2023-05-07T10:46:10;2.83;;;1.85;;
10061;SDS011;5070;52.382;5.270;2023-05-07T10:51:43;2.95;;;2.75;;
10061;SDS011;5070;52.382;5.270;2023-05-07T10:54:22;5.35;;;3.50;;
10061;SDS011;5070;52.382;5.270;2023-05-07T10:57:01;6.22;;;3.55;;
10061;SDS011;5070;52.382;5.270;2023-05-07T11:03:22;7.85;;;3.38;;
10061;SDS011;5070;52.382;5.270;2023-05-07T11:06:10;6.18;;;4.35;;
10061;SDS011;5070;52.382;5.270;2023-05-07T11:08:54;4.88;;;3.30;;
10061;SDS011;5070;52.382;5.270;2023-05-07T11:11:46;3.72;;;3.53;;
10061;SDS011;5070;52.382;5.270;2023-05-07T11:14:46;6.90;;;3.55;;
10061;SDS011;5070;52.382;5.270;2023-05-07T11:17:28;3.85;;;2.70;;
10061;SDS011;5070;52.382;5.270;2023-05-07T11:20:06;6.95;;;3.50;;
10061;SDS011;5070;52.382;5.270;2023-05-07T11:22:44;9.48;;;4.10;;
10061;SDS011;5070;52.382;5.270;2023-05-07T11:25:21;6.55;;;3.40;;
10061;SDS011;5070;52.382;5.270;2023-05-07T11:28:03;4.93;;;3.47;;
10061;SDS011;5070;52.382;5.270;2023-05-07T11:31:01;5.18;;;4.63;;
10061;SDS011;5070;52.382;5.270;2023-05-07T11:33:30;6.47;;;4.25;;
10061;SDS011;5070;52.382;5.270;2023-05-07T11:36:03;6.35;;;3.40;;
10061;SDS011;5070;52.382;5.270;2023-05-07T11:38:37;5.05;;;3.60;;
10061;SDS011;5070;52.382;5.270;2023-05-07T11:41:07;4.43;;;3.13;;
10061;SDS011;5070;52.382;5.270;2023-05-07T11:43:36;7.40;;;3.08;;
10061;SDS011;5070;52.382;5.270;2023-05-07T11:46:21;4.88;;;2.90;;
10061;SDS011;5070;52.382;5.270;2023-05-07T11:48:49;5.80;;;3.67;;
10061;SDS011;5070;52.382;5.270;2023-05-07T11:51:21;4.78;;;2.85;;
10061;SDS011;5070;52.382;5.270;2023-05-07T11:53:50;3.95;;;3.28;;
10061;SDS011;5070;52.382;5.270;2023-05-07T11:56:20;4.07;;;3.15;;
10061;SDS011;5070;52.382;5.270;2023-05-07T11:58:48;3.55;;;2.97;;
10061;SDS011;5070;52.382;5.270;2023-05-07T12:01:18;9.98;;;3.78;;
10061;SDS011;5070;52.382;5.270;2023-05-07T12:03:48;3.08;;;2.33;;
10061;SDS011;5070;52.382;5.270;2023-05-07T12:06:16;8.15;;;2.40;;
10061;SDS011;5070;52.382;5.270;2023-05-07T12:08:50;2.88;;;2.75;;
10061;SDS011;5070;52.382;5.270;2023-05-07T12:11:21;4.30;;;3.40;;
10061;SDS011;5070;52.382;5.270;2023-05-07T12:13:51;3.63;;;3.08;;
10061;SDS011;5070;52.382;5.270;2023-05-07T12:16:24;4.30;;;3.58;;
10061;SDS011;5070;52.382;5.270;2023-05-07T12:18:57;4.45;;;3.10;;
10061;SDS011;5070;52.382;5.270;2023-05-07T12:21:26;3.50;;;2.88;;
10061;SDS011;5070;52.382;5.270;2023-05-07T12:23:57;6.35;;;3.47;;
10061;SDS011;5070;52.382;5.270;2023-05-07T12:26:25;6.43;;;3.70;;
10061;SDS011;5070;52.382;5.270;2023-05-07T12:28:53;7.18;;;3.03;;
10061;SDS011;5070;52.382;5.270;2023-05-07T12:31:21;6.95;;;3.70;;
10061;SDS011;5070;52.382;5.270;2023-05-07T12:33:50;4.85;;;3.45;;
10061;SDS011;5070;52.382;5.270;2023-05-07T12:36:19;6.35;;;4.50;;
10061;SDS011;5070;52.382;5.270;2023-05-07T12:38:48;21.33;;;6.75;;
10061;SDS011;5070;52.382;5.270;2023-05-07T12:41:17;11.15;;;4.60;;
10061;SDS011;5070;52.382;5.270;2023-05-07T12:43:52;15.52;;;3.72;;
10061;SDS011;5070;52.382;5.270;2023-05-07T12:46:24;4.38;;;2.80;;
10061;SDS011;5070;52.382;5.270;2023-05-07T12:48:52;3.88;;;3.10;;
10061;SDS011;5070;52.382;5.270;2023-05-07T12:51:22;17.83;;;5.07;;
10061;SDS011;5070;52.382;5.270;2023-05-07T12:53:50;6.82;;;4.10;;
10061;SDS011;5070;52.382;5.270;2023-05-07T12:56:22;5.68;;;4.53;;
10061;SDS011;5070;52.382;5.270;2023-05-07T12:58:51;7.15;;;4.32;;
10061;SDS011;5070;52.382;5.270;2023-05-07T13:01:18;7.88;;;3.45;;
10061;SDS011;5070;52.382;5.270;2023-05-07T13:03:49;4.50;;;3.53;;
10061;SDS011;5070;52.382;5.270;2023-05-07T13:06:17;3.72;;;2.80;;
10061;SDS011;5070;52.382;5.270;2023-05-07T13:08:46;14.68;;;4.93;;
10061;SDS011;5070;52.382;5.270;2023-05-07T13:11:15;8.07;;;5.05;;
10061;SDS011;5070;52.382;5.270;2023-05-07T13:13:42;6.13;;;4.45;;
10061;SDS011;5070;52.382;5.270;2023-05-07T13:16:11;10.82;;;5.63;;
10061;SDS011;5070;52.382;5.270;2023-05-07T13:18:39;5.20;;;4.85;;
10061;SDS011;5070;52.382;5.270;2023-05-07T13:21:10;4.03;;;3.83;;
10061;SDS011;5070;52.382;5.270;2023-05-07T13:23:39;8.13;;;4.03;;
10061;SDS011;5070;52.382;5.270;2023-05-07T13:26:08;12.18;;;7.25;;
10061;SDS011;5070;52.382;5.270;2023-05-07T13:28:51;4.20;;;3.85;;
10061;SDS011;5070;52.382;5.270;2023-05-07T13:31:19;5.68;;;3.85;;
10061;SDS011;5070;52.382;5.270;2023-05-07T13:33:49;19.02;;;6.00;;
10061;SDS011;5070;52.382;5.270;2023-05-07T13:36:17;5.80;;;4.05;;
10061;SDS011;5070;52.382;5.270;2023-05-07T13:38:45;4.57;;;4.28;;
10061;SDS011;5070;52.382;5.270;2023-05-07T13:41:15;4.72;;;3.70;;
10061;SDS011;5070;52.382;5.270;2023-05-07T13:43:43;6.15;;;4.90;;
10061;SDS011;5070;52.382;5.270;2023-05-07T13:46:11;4.75;;;4.10;;
10061;SDS011;5070;52.382;5.270;2023-05-07T13:48:39;4.25;;;3.58;;
10061;SDS011;5070;52.382;5.270;2023-05-07T13:51:10;12.13;;;5.10;;
10061;SDS011;5070;52.382;5.270;2023-05-07T13:53:38;3.80;;;2.78;;
10061;SDS011;5070;52.382;5.270;2023-05-07T13:56:06;7.78;;;5.53;;
10061;SDS011;5070;52.382;5.270;2023-05-07T13:58:36;4.53;;;3.33;;
10061;SDS011;5070;52.382;5.270;2023-05-07T14:01:21;6.80;;;3.35;;
10061;SDS011;5070;52.382;5.270;2023-05-07T14:03:49;6.13;;;3.53;;
10061;SDS011;5070;52.382;5.270;2023-05-07T14:06:18;5.80;;;3.95;;
10061;SDS011;5070;52.382;5.270;2023-05-07T14:08:46;4.93;;;2.83;;
10061;SDS011;5070;52.382;5.270;2023-05-07T14:11:13;6.80;;;3.97;;
10061;SDS011;5070;52.382;5.270;2023-05-07T14:13:43;4.43;;;4.13;;
10061;SDS011;5070;52.382;5.270;2023-05-07T14:16:11;4.07;;;3.80;;
10061;SDS011;5070;52.382;5.270;2023-05-07T14:18:39;3.17;;;2.67;;
10061;SDS011;5070;52.382;5.270;2023-05-07T14:21:07;8.73;;;4.05;;
10061;SDS011;5070;52.382;5.270;2023-05-07T14:23:36;7.75;;;3.88;;
10061;SDS011;5070;52.382;5.270;2023-05-07T14:26:04;4.75;;;2.95;;
10061;SDS011;5070;52.382;5.270;2023-05-07T14:28:32;3.03;;;2.08;;
10061;SDS011;5070;52.382;5.270;2023-05-07T14:31:01;2.60;;;2.38;;
10061;SDS011;5070;52.382;5.270;2023-05-07T14:33:29;7.53;;;3.60;;
10061;SDS011;5070;52.382;5.270;2023-05-07T14:35:57;4.38;;;3.38;;
10061;SDS011;5070;52.382;5.270;2023-05-07T14:38:25;4.72;;;3.90;;
10061;SDS011;5070;52.382;5.270;2023-05-07T14:40:53;2.75;;;2.60;;
10061;SDS011;5070;52.382;5.270;2023-05-07T14:43:22;12.90;;;3.90;;
10061;SDS011;5070;52.382;5.270;2023-05-07T14:45:50;5.55;;;3.38;;
10061;SDS011;5070;52.382;5.270;2023-05-07T14:48:20;4.15;;;3.03;;
10061;SDS011;5070;52.382;5.270;2023-05-07T14:50:48;4.40;;;2.85;;
10061;SDS011;5070;52.382;5.270;2023-05-07T14:53:16;3.55;;;2.95;;
10061;SDS011;5070;52.382;5.270;2023-05-07T14:55:44;6.22;;;3.38;;
10061;SDS011;5070;52.382;5.270;2023-05-07T14:58:12;6.22;;;2.78;;
10061;SDS011;5070;52.382;5.270;2023-05-07T15:00:40;4.75;;;3.78;;
10061;SDS011;5070;52.382;5.270;2023-05-07T15:03:08;5.40;;;3.67;;
10061;SDS011;5070;52.382;5.270;2023-05-07T15:05:42;6.57;;;2.75;;
10061;SDS011;5070;52.382;5.270;2023-05-07T15:08:09;16.45;;;4.03;;
10061;SDS011;5070;52.382;5.270;2023-05-07T15:10:37;7.50;;;3.88;;
10061;SDS011;5070;52.382;5.270;2023-05-07T15:13:07;11.23;;;3.80;;
10061;SDS011;5070;52.382;5.270;2023-05-07T15:15:41;3.45;;;2.42;;
10061;SDS011;5070;52.382;5.270;2023-05-07T15:18:09;5.30;;;3.08;;
10061;SDS011;5070;52.382;5.270;2023-05-07T15:20:42;6.70;;;2.45;;
10061;SDS011;5070;52.382;5.270;2023-05-07T15:23:10;3.90;;;3.35;;
10061;SDS011;5070;52.382;5.270;2023-05-07T15:25:42;6.20;;;3.50;;
10061;SDS011;5070;52.382;5.270;2023-05-07T15:28:12;10.88;;;3.60;;